sensor_id;sensor_type;location;lat;lon;timestamp;pressure;altitude;pressure_sealevel;temperature;humidity
76074;BME280;64776;42.636;24.358;2023-07-09T00:00:55;90550.03;;;15.85;66.52
76074;BME280;64776;42.636;24.358;2023-07-09T00:03:56;90554.69;;;15.84;66.70
76074;BME280;64776;42.636;24.358;2023-07-09T00:07:00;90552.25;;;15.86;66.41
76074;BME280;64776;42.636;24.358;2023-07-09T00:10:02;90558.34;;;15.92;65.64
76074;BME280;64776;42.636;24.358;2023-07-09T00:13:03;90559.06;;;15.93;66.03
76074;BME280;64776;42.636;24.358;2023-07-09T00:16:11;90555.41;;;15.85;67.08
76074;BME280;64776;42.636;24.358;2023-07-09T00:19:13;90555.69;;;15.76;67.41
76074;BME280;64776;42.636;24.358;2023-07-09T00:22:16;90562.31;;;15.69;67.10
76074;BME280;64776;42.636;24.358;2023-07-09T00:25:18;90557.16;;;15.71;67.06
76074;BME280;64776;42.636;24.358;2023-07-09T00:28:19;90560.34;;;15.75;67.12
76074;BME280;64776;42.636;24.358;2023-07-09T00:31:21;90559.59;;;15.75;66.98
76074;BME280;64776;42.636;24.358;2023-07-09T00:34:22;90556.16;;;15.80;66.64
76074;BME280;64776;42.636;24.358;2023-07-09T00:37:24;90548.81;;;15.86;65.67
76074;BME280;64776;42.636;24.358;2023-07-09T00:40:25;90562.53;;;15.82;65.94
76074;BME280;64776;42.636;24.358;2023-07-09T00:43:30;90561.28;;;15.83;66.35
76074;BME280;64776;42.636;24.358;2023-07-09T00:50:16;90551.06;;;15.76;66.79
76074;BME280;64776;42.636;24.358;2023-07-09T00:53:25;90545.19;;;15.72;66.52
76074;BME280;64776;42.636;24.358;2023-07-09T00:56:29;90547.88;;;15.72;65.98
76074;BME280;64776;42.636;24.358;2023-07-09T00:59:33;90547.38;;;15.74;66.01
76074;BME280;64776;42.636;24.358;2023-07-09T01:02:35;90541.53;;;15.70;66.23
76074;BME280;64776;42.636;24.358;2023-07-09T01:05:38;90551.06;;;15.54;68.21
76074;BME280;64776;42.636;24.358;2023-07-09T01:08:40;90540.56;;;15.39;68.84
76074;BME280;64776;42.636;24.358;2023-07-09T01:11:41;90544.50;;;15.44;67.76
76074;BME280;64776;42.636;24.358;2023-07-09T01:14:42;90542.28;;;15.54;67.45
76074;BME280;64776;42.636;24.358;2023-07-09T01:17:43;90552.78;;;15.57;66.79
76074;BME280;64776;42.636;24.358;2023-07-09T01:20:45;90542.75;;;15.52;67.18
76074;BME280;64776;42.636;24.358;2023-07-09T01:23:49;90557.22;;;15.49;68.36
76074;BME280;64776;42.636;24.358;2023-07-09T01:26:50;90547.91;;;15.28;69.38
76074;BME280;64776;42.636;24.358;2023-07-09T01:29:51;90557.44;;;15.23;68.89
76074;BME280;64776;42.636;24.358;2023-07-09T01:32:56;90553.03;;;15.15;71.17
76074;BME280;64776;42.636;24.358;2023-07-09T01:35:57;90551.34;;;15.01;71.88
76074;BME280;64776;42.636;24.358;2023-07-09T01:39:01;90546.94;;;14.98;71.23
76074;BME280;64776;42.636;24.358;2023-07-09T01:42:02;90555.03;;;15.14;69.73
76074;BME280;64776;42.636;24.358;2023-07-09T01:45:04;90558.16;;;15.29;69.57
76074;BME280;64776;42.636;24.358;2023-07-09T01:48:06;90560.16;;;15.29;68.89
76074;BME280;64776;42.636;24.358;2023-07-09T01:51:07;90568.91;;;15.29;69.35
76074;BME280;64776;42.636;24.358;2023-07-09T01:54:10;90572.84;;;15.12;70.25
76074;BME280;64776;42.636;24.358;2023-07-09T01:57:16;90576.75;;;15.00;71.80
76074;BME280;64776;42.636;24.358;2023-07-09T02:00:17;90567.94;;;14.83;72.08
76074;BME280;64776;42.636;24.358;2023-07-09T02:03:18;90574.06;;;14.83;72.64
76074;BME280;64776;42.636;24.358;2023-07-09T02:06:18;90583.78;;;14.69;73.76
76074;BME280;64776;42.636;24.358;2023-07-09T02:09:21;90567.91;;;14.66;73.86
76074;BME280;64776;42.636;24.358;2023-07-09T02:12:21;90576.44;;;14.59;74.41
76074;BME280;64776;42.636;24.358;2023-07-09T02:15:22;90575.94;;;14.49;74.43
76074;BME280;64776;42.636;24.358;2023-07-09T02:18:23;90567.13;;;14.43;74.96
76074;BME280;64776;42.636;24.358;2023-07-09T02:21:24;90572.22;;;14.30;75.02
76074;BME280;64776;42.636;24.358;2023-07-09T02:24:26;90578.47;;;14.16;76.24
76074;BME280;64776;42.636;24.358;2023-07-09T02:27:27;90580.66;;;14.12;75.80
76074;BME280;64776;42.636;24.358;2023-07-09T02:30:27;90583.09;;;14.16;76.12
76074;BME280;64776;42.636;24.358;2023-07-09T02:33:28;90584.34;;;14.20;75.61
76074;BME280;64776;42.636;24.358;2023-07-09T02:36:29;90582.09;;;14.08;76.72
76074;BME280;64776;42.636;24.358;2023-07-09T02:39:31;90581.13;;;14.05;76.89
76074;BME280;64776;42.636;24.358;2023-07-09T02:42:32;90579.34;;;13.91;76.66
76074;BME280;64776;42.636;24.358;2023-07-09T02:45:33;90585.34;;;13.69;77.97
76074;BME280;64776;42.636;24.358;2023-07-09T02:48:33;90591.81;;;13.52;78.79
76074;BME280;64776;42.636;24.358;2023-07-09T02:51:36;90586.00;;;13.59;78.47
76074;BME280;64776;42.636;24.358;2023-07-09T02:54:39;90588.63;;;13.48;79.02
76074;BME280;64776;42.636;24.358;2023-07-09T02:57:40;90597.13;;;13.41;79.63
76074;BME280;64776;42.636;24.358;2023-07-09T03:00:40;90585.41;;;13.44;79.62
76074;BME280;64776;42.636;24.358;2023-07-09T03:03:41;90589.75;;;13.36;79.96
76074;BME280;64776;42.636;24.358;2023-07-09T03:06:42;90598.94;;;13.24;80.62
76074;BME280;64776;42.636;24.358;2023-07-09T03:09:44;90597.38;;;13.12;81.00
76074;BME280;64776;42.636;24.358;2023-07-09T03:12:45;90602.69;;;13.37;80.33
76074;BME280;64776;42.636;24.358;2023-07-09T03:15:54;90599.19;;;13.26;79.32
76074;BME280;64776;42.636;24.358;2023-07-09T03:18:56;90599.38;;;13.17;79.89
76074;BME280;64776;42.636;24.358;2023-07-09T03:21:57;90597.91;;;13.16;80.36
76074;BME280;64776;42.636;24.358;2023-07-09T03:24:59;90600.63;;;13.21;80.31
76074;BME280;64776;42.636;24.358;2023-07-09T03:28:00;90605.00;;;13.19;80.32
76074;BME280;64776;42.636;24.358;2023-07-09T03:31:00;90609.34;;;13.16;79.84
76074;BME280;64776;42.636;24.358;2023-07-09T03:34:01;90610.28;;;13.13;79.68
76074;BME280;64776;42.636;24.358;2023-07-09T03:37:02;90605.16;;;13.10;79.92
76074;BME280;64776;42.636;24.358;2023-07-09T03:40:08;90615.75;;;12.98;80.40
76074;BME280;64776;42.636;24.358;2023-07-09T03:43:10;90610.38;;;12.98;80.85
76074;BME280;64776;42.636;24.358;2023-07-09T03:46:10;90611.34;;;12.95;80.55
76074;BME280;64776;42.636;24.358;2023-07-09T03:49:13;90615.66;;;12.87;80.84
76074;BME280;64776;42.636;24.358;2023-07-09T03:52:14;90616.66;;;12.90;81.26
76074;BME280;64776;42.636;24.358;2023-07-09T03:55:16;90619.13;;;12.93;81.21
76074;BME280;64776;42.636;24.358;2023-07-09T03:58:18;90618.69;;;13.00;81.73
76074;BME280;64776;42.636;24.358;2023-07-09T04:01:20;90610.34;;;13.19;81.55
76074;BME280;64776;42.636;24.358;2023-07-09T04:04:20;90611.13;;;13.25;81.29
76074;BME280;64776;42.636;24.358;2023-07-09T04:07:21;90610.69;;;13.32;79.74
76074;BME280;64776;42.636;24.358;2023-07-09T04:10:23;90622.94;;;13.44;79.31
76074;BME280;64776;42.636;24.358;2023-07-09T04:13:24;90628.31;;;13.44;78.41
76074;BME280;64776;42.636;24.358;2023-07-09T04:16:25;90628.16;;;13.22;79.86
76074;BME280;64776;42.636;24.358;2023-07-09T04:19:26;90625.38;;;13.42;80.19
76074;BME280;64776;42.636;24.358;2023-07-09T04:22:27;90627.38;;;13.47;80.66
76074;BME280;64776;42.636;24.358;2023-07-09T04:25:29;90630.09;;;13.52;80.56
76074;BME280;64776;42.636;24.358;2023-07-09T04:28:30;90630.41;;;13.60;79.74
76074;BME280;64776;42.636;24.358;2023-07-09T04:31:31;90633.63;;;13.75;79.29
76074;BME280;64776;42.636;24.358;2023-07-09T04:34:31;90632.22;;;13.85;79.39
76074;BME280;64776;42.636;24.358;2023-07-09T04:37:32;90637.41;;;13.94;79.77
76074;BME280;64776;42.636;24.358;2023-07-09T04:40:34;90630.81;;;13.95;80.12
76074;BME280;64776;42.636;24.358;2023-07-09T04:43:35;90628.03;;;14.15;79.59
76074;BME280;64776;42.636;24.358;2023-07-09T04:46:36;90637.91;;;14.40;79.30
76074;BME280;64776;42.636;24.358;2023-07-09T04:49:36;90632.88;;;14.64;78.42
76074;BME280;64776;42.636;24.358;2023-07-09T04:52:37;90631.19;;;14.73;77.85
76074;BME280;64776;42.636;24.358;2023-07-09T04:55:39;90642.22;;;14.86;77.57
76074;BME280;64776;42.636;24.358;2023-07-09T04:58:40;90639.06;;;15.09;76.17
76074;BME280;64776;42.636;24.358;2023-07-09T05:01:41;90640.31;;;15.25;75.50
76074;BME280;64776;42.636;24.358;2023-07-09T05:04:42;90646.94;;;15.46;74.92
76074;BME280;64776;42.636;24.358;2023-07-09T05:07:42;90641.06;;;15.59;73.71
76074;BME280;64776;42.636;24.358;2023-07-09T05:10:46;90639.09;;;15.81;73.27
76074;BME280;64776;42.636;24.358;2023-07-09T05:13:47;90638.56;;;15.99;72.36
76074;BME280;64776;42.636;24.358;2023-07-09T05:16:47;90644.38;;;16.20;72.23
76074;BME280;64776;42.636;24.358;2023-07-09T05:19:48;90640.19;;;16.30;71.16
76074;BME280;64776;42.636;24.358;2023-07-09T05:22:49;90646.56;;;16.33;70.59
76074;BME280;64776;42.636;24.358;2023-07-09T05:25:56;90642.09;;;16.63;71.01
76074;BME280;64776;42.636;24.358;2023-07-09T05:28:56;90637.09;;;16.78;70.87
76074;BME280;64776;42.636;24.358;2023-07-09T05:31:57;90634.97;;;17.12;69.32
76074;BME280;64776;42.636;24.358;2023-07-09T05:34:58;90630.72;;;17.22;67.46
76074;BME280;64776;42.636;24.358;2023-07-09T05:37:59;90633.59;;;17.35;66.46
76074;BME280;64776;42.636;24.358;2023-07-09T05:41:03;90633.59;;;17.35;65.21
76074;BME280;64776;42.636;24.358;2023-07-09T05:44:04;90630.00;;;17.56;65.33
76074;BME280;64776;42.636;24.358;2023-07-09T05:47:05;90625.22;;;17.73;65.46
76074;BME280;64776;42.636;24.358;2023-07-09T05:50:06;90628.59;;;17.79;62.59
76074;BME280;64776;42.636;24.358;2023-07-09T05:53:08;90623.56;;;17.95;63.13
76074;BME280;64776;42.636;24.358;2023-07-09T05:56:10;90622.91;;;17.83;63.05
76074;BME280;64776;42.636;24.358;2023-07-09T05:59:11;90621.91;;;17.86;63.60
76074;BME280;64776;42.636;24.358;2023-07-09T06:02:12;90632.88;;;17.94;62.96
76074;BME280;64776;42.636;24.358;2023-07-09T06:05:14;90635.13;;;18.14;64.09
76074;BME280;64776;42.636;24.358;2023-07-09T06:08:15;90629.53;;;18.36;62.73
76074;BME280;64776;42.636;24.358;2023-07-09T06:11:17;90621.41;;;18.36;62.50
76074;BME280;64776;42.636;24.358;2023-07-09T06:14:18;90632.44;;;18.62;61.37
76074;BME280;64776;42.636;24.358;2023-07-09T06:17:19;90620.81;;;18.67;59.41
76074;BME280;64776;42.636;24.358;2023-07-09T06:20:19;90623.84;;;18.82;58.21
76074;BME280;64776;42.636;24.358;2023-07-09T06:23:20;90621.13;;;18.82;57.39
76074;BME280;64776;42.636;24.358;2023-07-09T06:26:23;90623.47;;;18.91;59.49
76074;BME280;64776;42.636;24.358;2023-07-09T06:29:24;90623.19;;;19.13;58.95
76074;BME280;64776;42.636;24.358;2023-07-09T06:32:24;90620.59;;;19.21;57.18
76074;BME280;64776;42.636;24.358;2023-07-09T06:35:25;90624.47;;;19.25;60.23
76074;BME280;64776;42.636;24.358;2023-07-09T06:38:27;90618.75;;;19.29;59.52
76074;BME280;64776;42.636;24.358;2023-07-09T06:41:30;90627.06;;;19.36;60.82
76074;BME280;64776;42.636;24.358;2023-07-09T06:44:30;90621.47;;;19.47;58.08
76074;BME280;64776;42.636;24.358;2023-07-09T06:47:31;90620.81;;;19.41;56.32
76074;BME280;64776;42.636;24.358;2023-07-09T06:50:33;90630.50;;;19.18;59.03
76074;BME280;64776;42.636;24.358;2023-07-09T06:53:34;90623.53;;;19.23;59.05
76074;BME280;64776;42.636;24.358;2023-07-09T06:56:36;90616.75;;;19.16;58.57
76074;BME280;64776;42.636;24.358;2023-07-09T06:59:37;90625.00;;;19.42;58.06
76074;BME280;64776;42.636;24.358;2023-07-09T07:02:38;90617.38;;;19.60;58.99
76074;BME280;64776;42.636;24.358;2023-07-09T07:05:43;90624.81;;;19.85;58.80
76074;BME280;64776;42.636;24.358;2023-07-09T07:08:43;90628.47;;;19.88;57.19
76074;BME280;64776;42.636;24.358;2023-07-09T07:11:46;90635.06;;;19.92;59.13
76074;BME280;64776;42.636;24.358;2023-07-09T07:14:46;90637.47;;;19.96;58.82
76074;BME280;64776;42.636;24.358;2023-07-09T07:17:47;90641.50;;;19.89;59.91
76074;BME280;64776;42.636;24.358;2023-07-09T07:20:48;90631.22;;;20.01;60.36
76074;BME280;64776;42.636;24.358;2023-07-09T07:23:49;90629.44;;;20.03;55.81
76074;BME280;64776;42.636;24.358;2023-07-09T07:26:51;90635.84;;;20.19;58.87
76074;BME280;64776;42.636;24.358;2023-07-09T07:29:52;90622.94;;;20.38;57.43
76074;BME280;64776;42.636;24.358;2023-07-09T07:32:53;90628.16;;;20.49;56.65
76074;BME280;64776;42.636;24.358;2023-07-09T07:35:54;90619.22;;;20.54;56.80
76074;BME280;64776;42.636;24.358;2023-07-09T07:38:54;90618.16;;;20.70;55.40
76074;BME280;64776;42.636;24.358;2023-07-09T07:41:57;90617.94;;;20.68;56.51
76074;BME280;64776;42.636;24.358;2023-07-09T07:44:58;90612.88;;;20.98;55.89
76074;BME280;64776;42.636;24.358;2023-07-09T07:47:58;90622.69;;;21.15;55.80
76074;BME280;64776;42.636;24.358;2023-07-09T07:50:59;90621.56;;;21.44;54.88
76074;BME280;64776;42.636;24.358;2023-07-09T07:54:00;90626.00;;;21.21;55.57
76074;BME280;64776;42.636;24.358;2023-07-09T07:57:03;90624.78;;;21.08;54.18
76074;BME280;64776;42.636;24.358;2023-07-09T08:00:05;90627.72;;;21.11;53.18
76074;BME280;64776;42.636;24.358;2023-07-09T08:03:06;90625.72;;;21.11;52.75
76074;BME280;64776;42.636;24.358;2023-07-09T08:06:07;90627.88;;;21.26;51.80
76074;BME280;64776;42.636;24.358;2023-07-09T08:09:07;90623.69;;;21.25;52.08
76074;BME280;64776;42.636;24.358;2023-07-09T08:12:11;90614.31;;;21.26;52.38
76074;BME280;64776;42.636;24.358;2023-07-09T08:15:11;90614.56;;;21.69;51.76
76074;BME280;64776;42.636;24.358;2023-07-09T08:18:12;90619.13;;;21.53;52.17
76074;BME280;64776;42.636;24.358;2023-07-09T08:21:13;90618.53;;;21.47;51.60
76074;BME280;64776;42.636;24.358;2023-07-09T08:24:14;90618.69;;;21.83;51.70
76074;BME280;64776;42.636;24.358;2023-07-09T08:27:16;90613.00;;;21.94;50.37
76074;BME280;64776;42.636;24.358;2023-07-09T08:30:17;90623.38;;;21.62;51.64
76074;BME280;64776;42.636;24.358;2023-07-09T08:33:18;90623.50;;;21.90;51.96
76074;BME280;64776;42.636;24.358;2023-07-09T08:36:20;90619.84;;;21.88;52.73
76074;BME280;64776;42.636;24.358;2023-07-09T08:39:21;90620.47;;;22.01;50.29
76074;BME280;64776;42.636;24.358;2023-07-09T08:42:29;90621.66;;;21.72;49.31
76074;BME280;64776;42.636;24.358;2023-07-09T08:45:38;90615.25;;;22.03;50.48
76074;BME280;64776;42.636;24.358;2023-07-09T08:48:46;90614.00;;;22.32;48.83
76074;BME280;64776;42.636;24.358;2023-07-09T08:51:48;90616.75;;;22.32;48.84
76074;BME280;64776;42.636;24.358;2023-07-09T08:54:50;90618.09;;;22.46;49.98
76074;BME280;64776;42.636;24.358;2023-07-09T08:57:55;90624.22;;;22.39;47.03
76074;BME280;64776;42.636;24.358;2023-07-09T09:00:59;90615.53;;;22.41;48.53
76074;BME280;64776;42.636;24.358;2023-07-09T09:04:04;90619.13;;;22.92;48.06
76074;BME280;64776;42.636;24.358;2023-07-09T09:07:14;90625.00;;;23.04;45.97
76074;BME280;64776;42.636;24.358;2023-07-09T09:10:26;90622.31;;;23.19;45.75
76074;BME280;64776;42.636;24.358;2023-07-09T09:13:30;90621.88;;;23.00;47.34
76074;BME280;64776;42.636;24.358;2023-07-09T09:16:35;90629.31;;;22.99;46.35
76074;BME280;64776;42.636;24.358;2023-07-09T09:19:39;90635.06;;;23.24;46.67
76074;BME280;64776;42.636;24.358;2023-07-09T09:22:46;90638.63;;;23.11;45.37
76074;BME280;64776;42.636;24.358;2023-07-09T09:25:52;90645.13;;;23.44;45.32
76074;BME280;64776;42.636;24.358;2023-07-09T09:28:56;90639.69;;;23.52;44.07
76074;BME280;64776;42.636;24.358;2023-07-09T09:32:00;90633.44;;;23.94;44.83
76074;BME280;64776;42.636;24.358;2023-07-09T09:35:14;90637.97;;;23.84;47.02
76074;BME280;64776;42.636;24.358;2023-07-09T09:38:19;90641.25;;;23.90;43.57
76074;BME280;64776;42.636;24.358;2023-07-09T09:41:21;90643.13;;;24.41;43.73
76074;BME280;64776;42.636;24.358;2023-07-09T09:44:26;90638.38;;;24.49;44.72
76074;BME280;64776;42.636;24.358;2023-07-09T09:47:27;90637.47;;;24.69;43.99
76074;BME280;64776;42.636;24.358;2023-07-09T09:50:32;90639.31;;;24.36;44.42
76074;BME280;64776;42.636;24.358;2023-07-09T09:53:37;90644.03;;;24.05;44.16
76074;BME280;64776;42.636;24.358;2023-07-09T09:56:42;90635.03;;;23.82;44.13
76074;BME280;64776;42.636;24.358;2023-07-09T09:59:45;90638.75;;;24.22;41.95
76074;BME280;64776;42.636;24.358;2023-07-09T10:02:46;90636.94;;;24.48;49.70
76074;BME280;64776;42.636;24.358;2023-07-09T10:05:51;90636.22;;;24.47;42.67
76074;BME280;64776;42.636;24.358;2023-07-09T10:08:58;90629.66;;;24.58;42.44
76074;BME280;64776;42.636;24.358;2023-07-09T10:12:08;90642.03;;;24.74;42.11
76074;BME280;64776;42.636;24.358;2023-07-09T10:15:24;90640.38;;;24.93;42.06
76074;BME280;64776;42.636;24.358;2023-07-09T10:18:41;90619.03;;;25.07;40.90
76074;BME280;64776;42.636;24.358;2023-07-09T10:21:50;90632.00;;;24.84;40.43
76074;BME280;64776;42.636;24.358;2023-07-09T10:24:59;90631.13;;;24.74;40.99
76074;BME280;64776;42.636;24.358;2023-07-09T10:28:28;90626.88;;;25.03;39.21
76074;BME280;64776;42.636;24.358;2023-07-09T10:31:41;90616.44;;;25.24;38.54
76074;BME280;64776;42.636;24.358;2023-07-09T10:34:52;90619.94;;;25.10;38.90
76074;BME280;64776;42.636;24.358;2023-07-09T10:38:05;90613.16;;;25.18;44.08
76074;BME280;64776;42.636;24.358;2023-07-09T10:41:11;90614.47;;;25.02;42.07
76074;BME280;64776;42.636;24.358;2023-07-09T10:44:16;90609.88;;;25.20;41.12
76074;BME280;64776;42.636;24.358;2023-07-09T10:47:27;90622.03;;;24.79;39.80
76074;BME280;64776;42.636;24.358;2023-07-09T10:50:32;90613.41;;;24.97;39.83
76074;BME280;64776;42.636;24.358;2023-07-09T10:53:38;90617.97;;;24.87;38.49
76074;BME280;64776;42.636;24.358;2023-07-09T10:56:43;90621.63;;;24.82;40.31
76074;BME280;64776;42.636;24.358;2023-07-09T10:59:49;90612.09;;;25.06;37.88
76074;BME280;64776;42.636;24.358;2023-07-09T11:02:58;90605.38;;;25.54;35.82
76074;BME280;64776;42.636;24.358;2023-07-09T11:06:00;90619.28;;;25.41;37.59
76074;BME280;64776;42.636;24.358;2023-07-09T11:09:01;90610.72;;;25.37;38.03
76074;BME280;64776;42.636;24.358;2023-07-09T11:12:08;90609.56;;;25.88;38.83
76074;BME280;64776;42.636;24.358;2023-07-09T11:15:15;90605.47;;;25.71;38.22
76074;BME280;64776;42.636;24.358;2023-07-09T11:18:22;90604.16;;;26.05;37.16
76074;BME280;64776;42.636;24.358;2023-07-09T11:21:25;90604.00;;;25.31;38.78
76074;BME280;64776;42.636;24.358;2023-07-09T11:24:32;90613.44;;;25.37;39.68
76074;BME280;64776;42.636;24.358;2023-07-09T11:27:33;90605.72;;;25.11;39.97
76074;BME280;64776;42.636;24.358;2023-07-09T11:30:48;90601.97;;;25.46;39.63
76074;BME280;64776;42.636;24.358;2023-07-09T11:34:00;90602.13;;;25.48;38.94
76074;BME280;64776;42.636;24.358;2023-07-09T11:37:02;90596.44;;;25.14;40.54
76074;BME280;64776;42.636;24.358;2023-07-09T11:40:11;90598.91;;;25.27;39.14
76074;BME280;64776;42.636;24.358;2023-07-09T11:43:27;90593.19;;;25.00;38.47
76074;BME280;64776;42.636;24.358;2023-07-09T11:46:28;90598.53;;;25.31;41.73
76074;BME280;64776;42.636;24.358;2023-07-09T11:49:43;90591.16;;;25.56;38.62
76074;BME280;64776;42.636;24.358;2023-07-09T11:52:51;90593.53;;;25.59;36.67
76074;BME280;64776;42.636;24.358;2023-07-09T11:55:52;90596.41;;;25.94;36.13
76074;BME280;64776;42.636;24.358;2023-07-09T11:58:56;90592.03;;;25.91;36.46
76074;BME280;64776;42.636;24.358;2023-07-09T12:01:57;90597.63;;;25.75;37.20
76074;BME280;64776;42.636;24.358;2023-07-09T12:04:59;90589.72;;;26.12;35.63
76074;BME280;64776;42.636;24.358;2023-07-09T12:08:05;90583.09;;;26.64;36.26
76074;BME280;64776;42.636;24.358;2023-07-09T12:11:19;90578.47;;;26.91;35.16
76074;BME280;64776;42.636;24.358;2023-07-09T12:14:21;90578.38;;;26.40;35.32
76074;BME280;64776;42.636;24.358;2023-07-09T12:17:23;90576.50;;;25.68;35.38
76074;BME280;64776;42.636;24.358;2023-07-09T12:20:29;90573.34;;;25.79;35.33
76074;BME280;64776;42.636;24.358;2023-07-09T12:23:32;90563.09;;;25.88;36.20
76074;BME280;64776;42.636;24.358;2023-07-09T12:26:33;90564.06;;;25.75;35.69
76074;BME280;64776;42.636;24.358;2023-07-09T12:29:35;90563.78;;;25.63;36.32
76074;BME280;64776;42.636;24.358;2023-07-09T12:32:43;90568.22;;;25.51;37.19
76074;BME280;64776;42.636;24.358;2023-07-09T12:35:46;90563.28;;;25.57;38.19
76074;BME280;64776;42.636;24.358;2023-07-09T12:38:49;90558.72;;;25.84;36.43
76074;BME280;64776;42.636;24.358;2023-07-09T12:41:54;90558.66;;;25.28;37.87
76074;BME280;64776;42.636;24.358;2023-07-09T12:44:55;90566.28;;;24.89;38.70
76074;BME280;64776;42.636;24.358;2023-07-09T12:47:56;90559.03;;;24.84;37.91
76074;BME280;64776;42.636;24.358;2023-07-09T12:50:59;90559.19;;;25.66;37.12
76074;BME280;64776;42.636;24.358;2023-07-09T12:54:01;90554.06;;;25.95;35.50
76074;BME280;64776;42.636;24.358;2023-07-09T12:57:14;90556.31;;;26.38;35.49
76074;BME280;64776;42.636;24.358;2023-07-09T13:00:16;90554.78;;;26.44;37.36
76074;BME280;64776;42.636;24.358;2023-07-09T13:03:20;90559.19;;;26.65;35.73
76074;BME280;64776;42.636;24.358;2023-07-09T13:06:28;90555.19;;;26.41;34.64
76074;BME280;64776;42.636;24.358;2023-07-09T13:09:29;90552.72;;;25.86;35.59
76074;BME280;64776;42.636;24.358;2023-07-09T13:12:32;90537.75;;;26.71;34.92
76074;BME280;64776;42.636;24.358;2023-07-09T13:15:39;90555.63;;;26.13;38.73
76074;BME280;64776;42.636;24.358;2023-07-09T13:18:40;90556.63;;;26.25;39.45
76074;BME280;64776;42.636;24.358;2023-07-09T13:21:43;90555.84;;;26.49;40.06
76074;BME280;64776;42.636;24.358;2023-07-09T13:24:44;90544.72;;;26.89;38.72
76074;BME280;64776;42.636;24.358;2023-07-09T13:27:45;90545.13;;;27.29;38.57
76074;BME280;64776;42.636;24.358;2023-07-09T13:30:46;90548.03;;;26.87;36.50
76074;BME280;64776;42.636;24.358;2023-07-09T13:33:50;90544.75;;;26.64;37.80
76074;BME280;64776;42.636;24.358;2023-07-09T13:36:57;90555.53;;;26.45;37.21
76074;BME280;64776;42.636;24.358;2023-07-09T13:39:58;90560.00;;;25.83;38.22
76074;BME280;64776;42.636;24.358;2023-07-09T13:42:58;90557.53;;;25.38;39.61
76074;BME280;64776;42.636;24.358;2023-07-09T13:46:01;90553.22;;;25.28;39.14
76074;BME280;64776;42.636;24.358;2023-07-09T13:49:02;90560.38;;;25.08;40.84
76074;BME280;64776;42.636;24.358;2023-07-09T13:52:05;90556.88;;;25.62;39.10
76074;BME280;64776;42.636;24.358;2023-07-09T13:55:14;90554.97;;;25.72;38.41
76074;BME280;64776;42.636;24.358;2023-07-09T13:58:18;90562.41;;;25.47;38.13
76074;BME280;64776;42.636;24.358;2023-07-09T14:01:22;90564.03;;;25.11;40.56
76074;BME280;64776;42.636;24.358;2023-07-09T14:04:23;90566.72;;;25.58;38.47
76074;BME280;64776;42.636;24.358;2023-07-09T14:07:28;90556.66;;;25.93;37.75
76074;BME280;64776;42.636;24.358;2023-07-09T14:10:29;90567.88;;;25.79;36.56
76074;BME280;64776;42.636;24.358;2023-07-09T14:13:30;90572.06;;;25.80;37.81
76074;BME280;64776;42.636;24.358;2023-07-09T14:16:31;90563.41;;;25.67;37.68
76074;BME280;64776;42.636;24.358;2023-07-09T14:19:31;90577.06;;;25.27;39.27
76074;BME280;64776;42.636;24.358;2023-07-09T14:22:36;90575.66;;;25.58;39.37
76074;BME280;64776;42.636;24.358;2023-07-09T14:25:37;90579.16;;;25.04;39.61
76074;BME280;64776;42.636;24.358;2023-07-09T14:28:38;90576.13;;;24.85;40.19
76074;BME280;64776;42.636;24.358;2023-07-09T14:31:40;90583.38;;;24.97;39.36
76074;BME280;64776;42.636;24.358;2023-07-09T14:34:41;90595.13;;;24.38;40.86
76074;BME280;64776;42.636;24.358;2023-07-09T14:37:44;90586.00;;;24.58;40.07
76074;BME280;64776;42.636;24.358;2023-07-09T14:40:46;90585.78;;;24.63;41.36
76074;BME280;64776;42.636;24.358;2023-07-09T14:43:48;90578.88;;;24.77;41.06
76074;BME280;64776;42.636;24.358;2023-07-09T14:46:49;90586.72;;;24.73;41.93
76074;BME280;64776;42.636;24.358;2023-07-09T14:49:50;90582.50;;;24.72;41.53
76074;BME280;64776;42.636;24.358;2023-07-09T14:52:53;90592.59;;;24.17;42.28
76074;BME280;64776;42.636;24.358;2023-07-09T14:55:54;90583.06;;;23.80;42.86
76074;BME280;64776;42.636;24.358;2023-07-09T14:58:55;90587.63;;;23.78;43.31
76074;BME280;64776;42.636;24.358;2023-07-09T15:01:55;90584.38;;;23.94;43.11
76074;BME280;64776;42.636;24.358;2023-07-09T15:04:56;90580.19;;;23.86;44.60
76074;BME280;64776;42.636;24.358;2023-07-09T15:07:58;90588.16;;;23.69;43.81
76074;BME280;64776;42.636;24.358;2023-07-09T15:10:59;90589.97;;;23.59;46.91
76074;BME280;64776;42.636;24.358;2023-07-09T15:14:00;90586.38;;;23.94;44.98
76074;BME280;64776;42.636;24.358;2023-07-09T15:17:01;90588.16;;;23.61;42.71
76074;BME280;64776;42.636;24.358;2023-07-09T15:20:02;90594.88;;;23.60;42.83
76074;BME280;64776;42.636;24.358;2023-07-09T15:23:05;90590.00;;;23.15;42.38
76074;BME280;64776;42.636;24.358;2023-07-09T15:26:12;90596.81;;;23.37;42.71
76074;BME280;64776;42.636;24.358;2023-07-09T15:29:14;90592.88;;;23.53;43.43
76074;BME280;64776;42.636;24.358;2023-07-09T15:32:15;90599.53;;;23.37;43.34
76074;BME280;64776;42.636;24.358;2023-07-09T15:35:17;90600.13;;;23.43;44.32
76074;BME280;64776;42.636;24.358;2023-07-09T15:38:31;90605.16;;;23.39;44.14
76074;BME280;64776;42.636;24.358;2023-07-09T15:41:32;90599.94;;;22.98;44.58
76074;BME280;64776;42.636;24.358;2023-07-09T15:44:33;90605.88;;;23.32;45.21
76074;BME280;64776;42.636;24.358;2023-07-09T15:47:33;90609.59;;;23.14;45.19
76074;BME280;64776;42.636;24.358;2023-07-09T15:50:34;90609.03;;;22.44;45.69
76074;BME280;64776;42.636;24.358;2023-07-09T15:53:38;90615.09;;;22.29;46.79
76074;BME280;64776;42.636;24.358;2023-07-09T15:56:39;90616.84;;;22.19;46.80
76074;BME280;64776;42.636;24.358;2023-07-09T15:59:40;90617.06;;;22.01;46.72